Time;durP1;ratioP1;P1;durP2;ratioP2;P2;SDS_P1;SDS_P2;PMS_P1;PMS_P2;Temp;Humidity;BMP_temperature;BMP_pressure;BME280_temperature;BME280_humidity;BME280_pressure;Samples;Min_cycle;Max_cycle;Signal;HPM_P1;HPM_P2
2023/02/07 00:04:29;;;;;;;31.10;22.55;;;;;;;-7.48;96.29;102422.75;10426191;28;20045;-78
2023/02/07 00:09:31;;;;;;;33.60;22.80;;;;;;;-7.43;97.01;102430.78;10431387;28;20044;-79
2023/02/07 00:14:33;;;;;;;30.98;21.75;;;;;;;-7.32;97.77;102445.28;10429819;28;20053;-79
2023/02/07 00:19:35;;;;;;;31.63;22.45;;;;;;;-7.35;96.41;102439.91;10429896;28;20060;-79
2023/02/07 00:24:36;;;;;;;34.97;21.50;;;;;;;-7.42;96.83;102442.78;10430332;28;20041;-78
2023/02/07 00:29:38;;;;;;;34.60;20.92;;;;;;;-7.15;93.71;102444.94;10428708;28;20483;-78
2023/02/07 00:34:40;;;;;;;23.52;19.95;;;;;;;-7.16;91.96;102448.28;10422024;28;20087;-78
2023/02/07 00:39:42;;;;;;;29.80;20.88;;;;;;;-7.33;93.19;102450.28;10421825;28;20045;-78
2023/02/07 00:44:44;;;;;;;35.30;22.08;;;;;;;-7.49;93.49;102441.38;10400173;28;20518;-76
2023/02/07 00:49:45;;;;;;;32.72;22.25;;;;;;;-7.52;94.33;102451.38;10418277;28;20052;-76
2023/02/07 00:54:47;;;;;;;43.45;23.42;;;;;;;-7.56;94.42;102451.91;10417401;28;20041;-76
2023/02/07 00:59:49;;;;;;;28.02;20.75;;;;;;;-7.71;94.64;102449.00;10416771;28;20117;-76
2023/02/07 01:04:51;;;;;;;26.95;21.40;;;;;;;-7.89;96.16;102461.19;10400006;28;20069;-76
2023/02/07 01:09:53;;;;;;;33.55;22.52;;;;;;;-7.48;95.48;102447.38;10400967;28;20049;-76
2023/02/07 01:14:54;;;;;;;31.45;21.05;;;;;;;-7.73;93.86;102442.88;10418016;28;20101;-76
2023/02/07 01:19:58;;;;;;;36.20;23.42;;;;;;;-7.88;94.98;102437.44;10412105;28;20140;-76
2023/02/07 01:24:59;;;;;;;38.83;23.27;;;;;;;-8.01;95.71;102441.41;10426250;28;20124;-75
2023/02/07 01:30:02;;;;;;;37.65;22.92;;;;;;;-8.09;95.64;102438.25;10407485;28;20422;-75
2023/02/07 01:35:04;;;;;;;37.70;22.42;;;;;;;-8.10;96.31;102430.47;10426215;28;20045;-77
2023/02/07 01:40:06;;;;;;;31.88;21.15;;;;;;;-7.57;93.28;102426.22;10407147;28;20045;-76
2023/02/07 01:45:17;;;;;;;35.20;22.00;;;;;;;-8.07;92.68;102434.16;10424925;28;20040;-76
2023/02/07 01:50:21;;;;;;;29.75;21.27;;;;;;;-8.22;94.23;102450.78;10390656;28;20041;-76
2023/02/07 01:55:29;;;;;;;32.28;21.42;;;;;;;-8.30;95.73;102455.25;10425550;28;20499;-76
2023/02/07 02:00:30;;;;;;;;;;;;;;;-8.28;96.51;102458.81;10406490;28;20045;-76
2023/02/07 02:05:34;;;;;;;39.13;19.75;;;;;;;-7.95;94.61;102436.81;10423854;28;19924;-76
2023/02/07 02:11:06;;;;;;;32.83;20.50;;;;;;;-7.82;91.44;102424.28;10406089;28;20125;-76
2023/02/07 02:16:29;;;;;;;40.55;21.38;;;;;;;-7.97;91.68;102421.41;10425873;28;20052;-77
2023/02/07 02:21:37;;;;;;;30.10;21.50;;;;;;;-8.19;92.65;102416.22;10421820;28;20041;-76
2023/02/07 02:26:48;;;;;;;36.72;22.17;;;;;;;-8.34;94.61;102414.94;10421719;28;20421;-76
2023/02/07 02:31:56;;;;;;;31.80;21.80;;;;;;;-8.26;95.27;102413.03;10404842;28;20438;-77
2023/02/07 02:37:01;;;;;;;30.48;21.88;;;;;;;-8.45;95.33;102415.78;10407080;28;20041;-76
2023/02/07 02:42:18;;;;;;;29.40;22.08;;;;;;;-8.36;95.68;102411.38;10388322;28;20053;-77
2023/02/07 02:47:22;;;;;;;25.58;20.08;;;;;;;-8.21;94.54;102433.03;10421121;28;20052;-76
2023/02/07 02:52:28;;;;;;;26.77;20.48;;;;;;;-8.17;94.57;102426.53;10403969;28;20041;-76
2023/02/07 02:58:19;;;;;;;32.40;20.27;;;;;;;-8.33;93.96;102421.81;10425049;28;20061;-77
2023/02/07 03:03:40;;;;;;;29.13;19.98;;;;;;;-8.38;94.35;102424.03;10336771;28;20434;-74
2023/02/07 03:08:57;;;;;;;35.35;21.08;;;;;;;-8.10;90.71;102416.06;10422630;28;20033;-77
2023/02/07 03:14:22;;;;;;;27.52;19.88;;;;;;;-8.40;91.90;102419.59;10421296;28;20087;-77
2023/02/07 03:19:28;;;;;;;21.75;19.50;;;;;;;-8.58;93.40;102415.50;10423843;28;20061;-76
2023/02/07 03:24:33;;;;;;;26.40;19.07;;;;;;;-8.64;93.76;102404.00;10386710;28;20049;-76
2023/02/07 03:29:38;;;;;;;34.30;19.88;;;;;;;-8.66;93.96;102417.41;10420831;28;20042;-76
2023/02/07 03:34:51;;;;;;;30.08;19.13;;;;;;;-8.70;93.85;102423.03;10420255;28;20045;-77
2023/02/07 03:39:53;;;;;;;26.60;20.48;;;;;;;-8.67;94.11;102415.66;10422371;28;20438;-77
2023/02/07 03:44:57;;;;;;;28.25;18.73;;;;;;;-8.51;94.34;102420.34;10422026;28;20065;-77
2023/02/07 03:49:59;;;;;;;26.30;18.27;;;;;;;-8.65;92.88;102414.97;10420624;28;20037;-76
2023/02/07 03:55:01;;;;;;;28.48;18.65;;;;;;;-8.60;93.52;102419.56;10419093;28;20053;-76
2023/02/07 04:00:04;;;;;;;26.80;19.00;;;;;;;-8.49;92.62;102417.16;10419856;28;20045;-77
2023/02/07 04:05:12;;;;;;;22.48;18.58;;;;;;;-8.33;91.27;102410.72;10421547;28;20049;-76
2023/02/07 04:10:14;;;;;;;25.50;17.23;;;;;;;-8.33;90.03;102397.97;10402236;28;20045;-78
2023/02/07 04:15:16;;;;;;;25.38;18.30;;;;;;;-8.70;90.85;102406.06;10402750;28;20041;-76
2023/02/07 04:20:18;;;;;;;18.90;16.77;;;;;;;-8.75;92.12;102403.91;10419743;28;20037;-77
2023/02/07 04:25:19;;;;;;;25.38;19.55;;;;;;;-8.54;90.60;102384.38;10421298;28;20124;-77
2023/02/07 04:30:25;;;;;;;20.00;16.45;;;;;;;-8.77;90.93;102402.88;10419060;28;20030;-76
2023/02/07 04:35:26;;;;;;;34.75;16.95;;;;;;;-8.79;91.64;102402.75;10419608;28;20056;-77
2023/02/07 04:40:28;;;;;;;20.05;16.95;;;;;;;-8.79;91.58;102404.41;10418638;28;20041;-77
2023/02/07 04:45:30;;;;;;;30.60;17.08;;;;;;;-8.80;92.10;102413.72;10420966;28;20037;-77
2023/02/07 04:50:32;;;;;;;23.58;16.75;;;;;;;-8.56;90.23;102419.97;10417950;28;20038;-77
2023/02/07 04:55:36;;;;;;;24.13;17.13;;;;;;;-8.48;88.74;102428.25;10418684;28;20049;-77
2023/02/07 05:00:38;;;;;;;21.20;16.60;;;;;;;-8.47;89.51;102433.47;10418366;28;20045;-77
2023/02/07 05:05:41;;;;;;;20.20;16.55;;;;;;;-8.47;89.28;102438.56;10427556;28;20064;-77
2023/02/07 05:10:43;;;;;;;27.33;17.35;;;;;;;-8.70;89.62;102429.00;10425647;28;20129;-77
2023/02/07 05:15:45;;;;;;;19.73;17.02;;;;;;;-8.97;91.03;102421.59;10425178;28;20046;-77
2023/02/07 05:20:46;;;;;;;29.08;20.73;;;;;;;-9.10;91.91;102427.31;10420990;28;20045;-76
2023/02/07 05:25:48;;;;;;;34.60;21.48;;;;;;;-9.04;92.43;102445.66;10402009;28;20096;-78
2023/02/07 05:30:55;;;;;;;30.13;19.73;;;;;;;-8.86;92.62;102432.69;10430766;28;20055;-77
2023/02/07 05:36:00;;;;;;;39.63;21.55;;;;;;;-8.60;91.72;102428.13;10427468;28;20513;-77
2023/02/07 05:41:02;;;;;;;25.98;18.17;;;;;;;-8.44;91.38;102437.94;10421200;28;20061;-77
2023/02/07 05:46:03;;;;;;;28.13;17.52;;;;;;;-8.50;89.97;102442.53;10419707;28;20052;-78
2023/02/07 05:51:05;;;;;;;24.83;17.13;;;;;;;-8.78;90.81;102440.22;10406057;28;20076;-75
2023/02/07 05:56:07;;;;;;;32.45;18.30;;;;;;;-8.71;91.53;102454.38;10417110;28;20050;-76
2023/02/07 06:01:08;;;;;;;47.25;22.35;;;;;;;-8.48;90.81;102447.00;10418762;28;20491;-76
2023/02/07 06:06:10;;;;;;;28.27;17.83;;;;;;;-8.49;90.17;102436.69;10423853;28;20076;-77
2023/02/07 06:11:12;;;;;;;28.15;17.52;;;;;;;-8.49;89.74;102418.81;10433151;28;20043;-79
2023/02/07 06:16:14;;;;;;;19.08;16.60;;;;;;;-8.61;89.23;102413.59;10435959;28;20072;-78
2023/02/07 06:21:15;;;;;;;19.80;16.25;;;;;;;-8.59;89.53;102403.50;10435412;28;20487;-77
2023/02/07 06:26:17;;;;;;;29.67;18.98;;;;;;;-8.90;89.40;102403.50;10418416;28;20483;-79
2023/02/07 06:31:19;;;;;;;24.55;16.92;;;;;;;-8.92;90.58;102415.22;10436020;28;20046;-78
2023/02/07 06:36:21;;;;;;;26.50;17.00;;;;;;;-8.79;90.24;102419.72;10435767;28;20550;-79
2023/02/07 06:41:23;;;;;;;30.10;18.55;;;;;;;-8.95;90.59;102431.13;10417721;28;20072;-78
2023/02/07 06:46:25;;;;;;;30.15;18.27;;;;;;;-8.83;91.11;102433.84;10414413;28;20458;-77
2023/02/07 06:51:27;;;;;;;27.70;17.17;;;;;;;-8.74;90.49;102434.63;10415174;28;20116;-78
2023/02/07 06:56:29;;;;;;;24.75;16.42;;;;;;;-8.57;89.44;102445.34;10439993;28;20052;-78
2023/02/07 07:01:31;;;;;;;24.92;17.10;;;;;;;-8.66;89.66;102454.00;10422987;28;20096;-78
2023/02/07 07:06:32;;;;;;;28.98;17.85;;;;;;;-8.54;89.78;102454.16;10420052;28;20057;-77
2023/02/07 07:11:37;;;;;;;29.15;17.77;;;;;;;-8.72;89.87;102462.78;10435877;28;20084;-78
2023/02/07 07:16:39;;;;;;;127.53;65.65;;;;;;;-8.29;88.35;102449.38;10436979;28;20041;-78
2023/02/07 07:21:41;;;;;;;29.27;18.25;;;;;;;-7.97;88.00;102449.47;10436642;28;20043;-78
2023/02/07 07:26:43;;;;;;;28.60;19.30;;;;;;;-8.04;88.02;102451.41;10417621;28;20072;-78
2023/02/07 07:31:50;;;;;;;68.47;32.95;;;;;;;-8.21;88.98;102466.22;10430967;28;20103;-78
2023/02/07 07:36:55;;;;;;;72.35;36.20;;;;;;;-8.19;90.73;102472.34;10430832;28;20041;-78
2023/02/07 07:41:57;;;;;;;75.90;34.80;;;;;;;-8.03;91.37;102471.94;10435389;28;20068;-78
2023/02/07 07:47:19;;;;;;;36.90;19.50;;;;;;;-7.96;91.10;102470.78;10414124;28;20045;-77
2023/02/07 07:52:21;;;;;;;32.90;20.48;;;;;;;-7.78;91.18;102466.28;10408603;28;20124;-77
2023/02/07 07:57:26;;;;;;;26.92;18.55;;;;;;;-7.65;91.00;102469.94;10411059;28;20049;-78
2023/02/07 08:02:28;;;;;;;51.33;24.90;;;;;;;-7.49;90.60;102473.69;10420999;28;20053;-78
2023/02/07 08:07:30;;;;;;;53.67;23.63;;;;;;;-7.41;90.52;102473.53;10414561;28;20040;-78
2023/02/07 08:12:32;;;;;;;35.95;20.40;;;;;;;-7.09;89.10;102474.28;10438505;28;20123;-78
2023/02/07 08:17:36;;;;;;;37.30;18.70;;;;;;;-6.95;88.78;102473.69;10437932;28;20049;-79
2023/02/07 08:22:38;;;;;;;35.97;20.00;;;;;;;-6.89;88.76;102479.31;10416128;28;20049;-78
2023/02/07 08:27:40;;;;;;;36.22;19.92;;;;;;;-6.48;86.98;102473.91;10407275;28;20414;-77
2023/02/07 08:32:42;;;;;;;37.50;22.35;;;;;;;-6.59;87.04;102472.22;10428335;28;20122;-78
2023/02/07 08:37:43;;;;;;;28.85;18.92;;;;;;;-6.45;87.10;102477.59;10428071;28;20044;-77
2023/02/07 08:42:45;;;;;;;32.95;18.30;;;;;;;-6.25;87.52;102486.75;10425258;28;20037;-77
2023/02/07 08:47:47;;;;;;;23.08;17.92;;;;;;;-6.07;86.45;102499.16;10410851;28;20041;-78
2023/02/07 08:52:49;;;;;;;32.13;19.42;;;;;;;-5.66;83.82;102497.97;10415578;28;20065;-78
2023/02/07 08:57:51;;;;;;;26.10;19.17;;;;;;;-5.55;82.72;102491.03;10432552;28;20040;-78
2023/02/07 09:02:53;;;;;;;27.27;17.35;;;;;;;-5.54;83.04;102497.06;10433723;28;20037;-78
2023/02/07 09:07:54;;;;;;;21.35;18.00;;;;;;;-5.43;82.61;102493.63;10433214;28;20073;-78
2023/02/07 09:12:57;;;;;;;23.05;17.92;;;;;;;-5.26;81.55;102492.28;10419009;28;20065;-78
2023/02/07 09:17:58;;;;;;;29.40;19.15;;;;;;;-5.47;81.81;102502.75;10438721;28;20030;-78
2023/02/07 09:23:18;;;;;;;35.40;18.77;;;;;;;-4.93;79.47;102491.19;10417811;28;20098;-78
2023/02/07 09:28:21;;;;;;;33.22;19.23;;;;;;;-5.08;81.38;102483.31;10437793;28;20042;-78
2023/02/07 09:33:23;;;;;;;31.50;19.55;;;;;;;-4.96;80.89;102488.38;10437040;28;20453;-78
2023/02/07 09:38:24;;;;;;;31.63;19.23;;;;;;;-4.78;81.14;102469.19;10423797;28;20048;-78
2023/02/07 09:44:08;;;;;;;31.45;19.77;;;;;;;-4.55;79.87;102470.75;10427577;28;20438;-78
2023/02/07 09:49:33;;;;;;;36.53;23.02;;;;;;;-4.70;81.19;102470.56;10443903;28;20041;-78
2023/02/07 09:54:40;;;;;;;44.05;23.23;;;;;;;-4.27;79.87;102458.09;10443484;28;20042;-78
2023/02/07 10:00:17;;;;;;;27.17;19.63;;;;;;;-4.23;79.79;102451.47;10426705;28;20041;-78
2023/02/07 10:05:22;;;;;;;;;;;;;;;-4.27;80.50;102454.63;10427109;28;20053;-78
2023/02/07 10:10:44;;;;;;;32.95;20.20;;;;;;;-3.78;78.83;102453.59;10443175;28;19990;-78
2023/02/07 10:16:01;;;;;;;31.95;22.05;;;;;;;-3.87;79.94;102459.03;10438833;28;20069;-78
2023/02/07 10:21:31;;;;;;;;;;;;;;;-3.93;81.12;102445.81;10416003;28;20523;-78
2023/02/07 10:26:39;;;;;;;33.63;22.55;;;;;;;-3.80;80.00;102452.63;10437695;28;19921;-79
2023/02/07 10:31:46;;;;;;;38.78;24.05;;;;;;;-3.87;81.79;102453.00;10435671;28;20065;-78
2023/02/07 10:36:51;;;;;;;35.88;22.15;;;;;;;-3.42;80.29;102449.03;10415113;28;20052;-79
2023/02/07 10:41:56;;;;;;;32.15;22.58;;;;;;;-3.30;80.91;102447.25;10440474;28;20044;-78
2023/02/07 10:47:03;;;;;;;43.83;24.70;;;;;;;-3.36;81.07;102452.91;10435155;28;20101;-78
2023/02/07 10:52:33;;;;;;;31.92;24.23;;;;;;;-3.26;82.22;102454.38;10428527;28;20124;-77
2023/02/07 10:57:36;;;;;;;32.42;23.85;;;;;;;-2.79;79.62;102456.41;10427018;28;20521;-77
2023/02/07 11:02:47;;;;;;;40.10;21.88;;;;;;;-1.89;74.41;102460.91;10408772;28;20049;-77
2023/02/07 11:08:01;;;;;;;33.80;21.20;;;;;;;-1.88;74.17;102452.34;10428899;28;20092;-78
2023/02/07 11:13:11;;;;;;;56.92;25.52;;;;;;;-1.40;71.82;102437.88;10432162;28;20057;-79
2023/02/07 11:18:54;;;;;;;28.92;20.88;;;;;;;-0.45;67.77;102440.34;10419724;28;20415;-78
2023/02/07 11:24:04;;;;;;;24.77;19.30;;;;;;;0.22;65.09;102430.78;10218206;29;20063;-77
2023/02/07 11:29:13;;;;;;;30.42;20.80;;;;;;;0.63;64.14;102425.00;10248299;28;20091;-77
2023/02/07 11:34:24;;;;;;;21.83;19.10;;;;;;;1.66;64.88;102424.44;10260877;29;20155;-78
2023/02/07 11:39:26;;;;;;;18.42;16.67;;;;;;;2.08;57.70;102424.44;10254855;28;20054;-78
2023/02/07 11:44:29;;;;;;;17.83;16.00;;;;;;;2.10;57.90;102420.22;10255670;29;20182;-79
2023/02/07 11:49:37;;;;;;;18.08;16.00;;;;;;;3.56;57.89;102417.13;10268877;28;20051;-78
2023/02/07 11:54:41;;;;;;;19.30;17.30;;;;;;;3.44;54.38;102420.16;10268744;29;20086;-79
2023/02/07 11:59:52;;;;;;;19.65;17.83;;;;;;;3.32;53.08;102424.03;10367397;28;20049;-79
2023/02/07 12:04:55;;;;;;;22.55;19.65;;;;;;;2.52;54.05;102426.22;10418172;28;20073;-79
2023/02/07 12:10:01;;;;;;;23.55;20.08;;;;;;;1.78;57.53;102435.34;10437483;28;20044;-80
2023/02/07 12:15:13;;;;;;;33.80;21.05;;;;;;;1.90;60.32;102414.19;10439582;28;20132;-80
2023/02/07 12:20:40;;;;;;;23.58;20.15;;;;;;;1.83;58.26;102409.59;10439835;28;20052;-79
2023/02/07 12:25:53;;;;;;;24.13;21.65;;;;;;;1.69;59.24;102403.81;10429508;28;20111;-80
2023/02/07 12:30:59;;;;;;;28.42;21.85;;;;;;;1.30;60.06;102387.44;10421522;28;20076;-80
2023/02/07 12:36:10;;;;;;;25.83;21.20;;;;;;;0.49;64.94;102388.13;10422575;28;20384;-79
2023/02/07 12:41:23;;;;;;;25.20;22.67;;;;;;;0.33;66.27;102383.03;10439284;28;20041;-79
2023/02/07 12:46:35;;;;;;;25.88;21.65;;;;;;;0.30;62.69;102369.97;10437772;28;20064;-81
2023/02/07 12:51:54;;;;;;;27.02;21.40;;;;;;;-0.13;67.75;102374.78;10419472;28;20479;-79
2023/02/07 12:57:18;;;;;;;32.50;22.10;;;;;;;-0.24;70.35;102378.53;10433058;28;20064;-80
2023/02/07 13:02:36;;;;;;;26.70;23.02;;;;;;;-0.16;67.57;102372.94;10430617;28;20443;-79
2023/02/07 13:07:43;;;;;;;29.45;24.08;;;;;;;-0.32;68.67;102363.50;10435456;28;20037;-78
2023/02/07 13:12:54;;;;;;;28.63;23.92;;;;;;;-0.36;70.38;102363.28;10411998;28;20054;-79
2023/02/07 13:18:05;;;;;;;26.60;23.13;;;;;;;-0.47;70.73;102356.72;10430236;28;20037;-78
2023/02/07 13:23:19;;;;;;;25.02;22.40;;;;;;;-0.59;70.52;102360.44;10411536;28;20045;-79
2023/02/07 13:28:26;;;;;;;24.65;21.95;;;;;;;-0.49;69.21;102348.84;10429201;28;20038;-77
2023/02/07 13:33:36;;;;;;;23.10;20.90;;;;;;;-0.53;68.71;102340.09;10425598;28;20049;-79
2023/02/07 13:38:53;;;;;;;28.98;21.38;;;;;;;-0.64;68.03;102340.34;10426983;28;20038;-77
2023/02/07 13:44:04;;;;;;;21.83;19.50;;;;;;;-0.51;67.66;102346.22;10426783;28;20061;-79
2023/02/07 13:49:10;;;;;;;25.83;19.42;;;;;;;-0.84;67.64;102336.75;10428661;28;20503;-77
2023/02/07 13:54:30;;;;;;;21.38;17.75;;;;;;;-0.84;66.67;102331.56;10424736;28;20041;-78
2023/02/07 13:59:39;;;;;;;25.98;20.63;;;;;;;-0.80;67.98;102338.66;10423448;28;20071;-77
2023/02/07 14:04:56;;;;;;;19.67;17.92;;;;;;;-0.84;66.11;102322.16;10422152;28;20045;-79
2023/02/07 14:09:58;;;;;;;21.87;19.63;;;;;;;-0.87;66.90;102322.00;10426937;28;20052;-78
2023/02/07 14:15:37;;;;;;;22.55;19.75;;;;;;;-0.61;66.80;102323.31;10408314;28;20144;-77
2023/02/07 14:20:40;;;;;;;29.30;18.63;;;;;;;-0.64;66.80;102318.00;10409257;28;20388;-78
2023/02/07 14:25:44;;;;;;;23.52;20.02;;;;;;;-0.59;68.17;102315.63;10432595;28;20072;-78
2023/02/07 14:30:52;;;;;;;25.17;21.38;;;;;;;-0.61;69.03;102307.81;10431502;28;20041;-79
2023/02/07 14:36:23;;;;;;;23.38;20.88;;;;;;;-0.59;69.43;102294.97;10429301;28;20208;-77
2023/02/07 14:41:35;;;;;;;27.58;22.50;;;;;;;-0.67;69.64;102302.31;10403643;28;20527;-78
2023/02/07 14:46:47;;;;;;;27.33;20.65;;;;;;;-0.59;67.27;102297.56;10409844;28;20041;-77
2023/02/07 14:51:57;;;;;;;26.42;23.65;;;;;;;-0.73;70.62;102299.44;10427170;28;20506;-77
2023/02/07 14:57:29;;;;;;;37.60;24.77;;;;;;;-0.89;73.29;102289.16;10428804;28;20072;-77
2023/02/07 15:02:38;;;;;;;35.42;26.20;;;;;;;-0.93;73.93;102300.13;10425246;28;20042;-77
2023/02/07 15:07:42;;;;;;;35.23;25.73;;;;;;;-1.23;75.22;102295.19;10407846;28;20048;-78
2023/02/07 15:12:44;;;;;;;37.88;27.10;;;;;;;-1.33;76.28;102300.63;10407369;28;20049;-77
2023/02/07 15:17:46;;;;;;;36.35;28.13;;;;;;;-1.48;77.66;102298.13;10425767;28;20049;-78
2023/02/07 15:22:55;;;;;;;47.38;28.73;;;;;;;-1.64;78.73;102314.50;10425893;28;20045;-77
2023/02/07 15:28:05;;;;;;;41.13;27.80;;;;;;;-1.74;80.08;102317.38;10406891;28;20076;-77
2023/02/07 15:33:18;;;;;;;33.72;22.02;;;;;;;-1.79;81.08;102326.53;10423910;28;20430;-77
2023/02/07 15:38:23;;;;;;;45.13;29.38;;;;;;;-1.71;80.63;102340.75;10427613;28;20049;-77
2023/02/07 15:43:33;;;;;;;39.95;28.25;;;;;;;-1.93;81.36;102332.63;10409179;28;20042;-77
2023/02/07 15:49:06;;;;;;;40.63;28.27;;;;;;;-2.07;82.52;102340.47;10425945;28;20084;-77
2023/02/07 15:54:16;;;;;;;49.95;29.15;;;;;;;-2.18;83.25;102341.56;10429246;28;20491;-78
2023/02/07 15:59:21;;;;;;;56.35;30.95;;;;;;;-2.09;82.38;102351.50;10428662;28;20482;-78
2023/02/07 16:04:25;;;;;;;51.58;31.30;;;;;;;-2.22;84.02;102361.91;10410744;28;20506;-78
2023/02/07 16:09:42;;;;;;;44.67;30.38;;;;;;;-2.23;83.65;102373.91;10409560;28;20047;-78
2023/02/07 16:14:44;;;;;;;48.60;31.60;;;;;;;-2.33;83.88;102374.19;10429108;28;20046;-79
2023/02/07 16:19:46;;;;;;;50.35;30.42;;;;;;;-2.57;85.62;102377.09;10412556;28;20108;-78
2023/02/07 16:24:49;;;;;;;45.42;32.00;;;;;;;-2.74;87.10;102392.34;10425704;28;20495;-77
2023/02/07 16:29:53;;;;;;;55.45;33.28;;;;;;;-2.82;87.10;102395.34;10411091;28;20077;-78
2023/02/07 16:34:55;;;;;;;53.95;32.20;;;;;;;-2.86;87.33;102411.41;10429077;28;20072;-78
2023/02/07 16:40:00;;;;;;;45.92;30.95;;;;;;;-3.02;87.56;102407.78;10424338;28;20045;-78
2023/02/07 16:45:02;;;;;;;52.03;32.67;;;;;;;-3.03;87.82;102411.16;10429396;28;20088;-77
2023/02/07 16:50:12;;;;;;;91.80;47.63;;;;;;;-2.77;87.53;102420.47;10431018;28;20487;-79
2023/02/07 16:55:18;;;;;;;104.53;54.47;;;;;;;-2.89;87.52;102428.34;10412136;28;20065;-78
2023/02/07 17:00:25;;;;;;;101.53;49.63;;;;;;;-2.58;86.39;102423.34;10414148;28;20510;-78
2023/02/07 17:05:26;;;;;;;82.70;43.22;;;;;;;-2.72;86.43;102419.06;10414880;28;20053;-77
2023/02/07 17:10:31;;;;;;;58.22;35.88;;;;;;;-2.85;87.11;102413.16;10412430;28;20076;-78
2023/02/07 17:15:33;;;;;;;54.15;34.45;;;;;;;-2.96;86.85;102427.09;10412953;28;20056;-78
2023/02/07 17:20:35;;;;;;;61.85;35.92;;;;;;;-3.10;88.37;102415.94;10428756;28;20045;-77
2023/02/07 17:25:37;;;;;;;73.50;42.67;;;;;;;-3.25;88.86;102425.28;10429982;28;20049;-78
2023/02/07 17:30:40;;;;;;;64.22;39.25;;;;;;;-3.49;90.06;102424.63;10411263;28;20052;-76
2023/02/07 17:35:44;;;;;;;88.22;43.75;;;;;;;-3.59;90.87;102410.28;10428029;28;20048;-77
2023/02/07 17:40:46;;;;;;;65.18;37.85;;;;;;;-3.63;90.80;102417.72;10427288;28;20045;-79
2023/02/07 17:45:48;;;;;;;59.58;35.97;;;;;;;-3.69;90.89;102414.75;10408796;28;20049;-77
2023/02/07 17:50:50;;;;;;;64.47;38.28;;;;;;;-3.69;91.00;102413.06;10412229;28;20140;-77
2023/02/07 17:55:51;;;;;;;74.28;41.22;;;;;;;-3.68;91.11;102419.09;10425613;28;20120;-78
2023/02/07 18:00:53;;;;;;;64.35;37.55;;;;;;;-3.71;91.02;102424.06;10433990;28;20037;-77
2023/02/07 18:05:56;;;;;;;82.85;40.72;;;;;;;-3.72;91.95;102433.44;10433916;28;20121;-78
2023/02/07 18:11:01;;;;;;;100.68;41.60;;;;;;;-3.82;92.08;102423.34;10422753;28;20052;-78
2023/02/07 18:16:03;;;;;;;84.00;41.17;;;;;;;-3.87;92.35;102427.31;10444016;28;20418;-78
2023/02/07 18:21:05;;;;;;;71.93;40.13;;;;;;;-3.57;91.16;102436.13;10434020;28;20460;-77
2023/02/07 18:26:09;;;;;;;64.90;37.05;;;;;;;-4.02;91.96;102439.19;10435161;28;20057;-77
2023/02/07 18:31:17;;;;;;;70.65;40.83;;;;;;;-4.01;93.49;102448.66;10418444;28;20436;-79
2023/02/07 18:36:21;;;;;;;72.57;41.08;;;;;;;-4.17;94.06;102451.88;10442340;28;20049;-78
2023/02/07 18:41:25;;;;;;;68.60;39.38;;;;;;;-4.39;93.91;102458.13;10445153;22;20037;-76
2023/02/07 18:46:27;;;;;;;63.83;38.70;;;;;;;-3.99;93.29;102463.38;10509707;28;20090;-76
2023/02/07 18:51:29;;;;;;;72.45;39.65;;;;;;;-3.93;92.79;102447.47;10508962;28;20045;-76
2023/02/07 18:56:34;;;;;;;68.50;39.20;;;;;;;-3.95;91.66;102443.91;10490010;28;20547;-77
2023/02/07 19:01:36;;;;;;;67.57;39.53;;;;;;;-4.08;91.21;102448.22;10490842;28;20549;-78
2023/02/07 19:06:38;;;;;;;69.53;37.92;;;;;;;-4.32;91.89;102447.50;10489884;28;20051;-77
2023/02/07 19:11:40;;;;;;;65.72;38.75;;;;;;;-4.30;91.76;102445.03;10506361;28;20079;-77
2023/02/07 19:16:43;;;;;;;70.28;41.30;;;;;;;-4.53;93.24;102445.16;10495376;28;20058;-78
2023/02/07 19:21:45;;;;;;;71.97;40.63;;;;;;;-4.51;93.39;102447.06;10499175;28;20040;-77
2023/02/07 19:26:51;;;;;;;75.18;39.22;;;;;;;-4.15;92.20;102440.03;10496649;28;20413;-79
2023/02/07 19:31:58;;;;;;;76.40;41.88;;;;;;;-4.44;92.39;102433.84;10497758;28;20036;-77
2023/02/07 19:37:01;;;;;;;82.43;44.90;;;;;;;-4.37;91.88;102435.16;10497113;28;20045;-78
2023/02/07 19:42:03;;;;;;;68.85;39.67;;;;;;;-4.67;92.24;102442.56;10480004;28;20048;-79
2023/02/07 19:47:05;;;;;;;77.07;42.10;;;;;;;-4.73;93.71;102425.88;10511810;28;20044;-78
2023/02/07 19:52:07;;;;;;;86.80;44.63;;;;;;;-4.42;92.19;102423.69;10496180;28;20094;-79
2023/02/07 19:57:10;;;;;;;81.20;43.67;;;;;;;-4.50;91.36;102430.00;10494462;28;20053;-78
2023/02/07 20:02:12;;;;;;;84.90;45.15;;;;;;;-4.93;93.38;102422.81;10513741;28;20041;-78
2023/02/07 20:07:14;;;;;;;82.43;42.90;;;;;;;-5.01;94.44;102433.31;10495470;28;20397;-79
2023/02/07 20:12:16;;;;;;;82.93;44.47;;;;;;;-5.13;94.25;102428.25;10483574;28;20045;-78
2023/02/07 20:17:19;;;;;;;81.55;44.08;;;;;;;-5.05;95.30;102427.06;10493701;28;20045;-78
2023/02/07 20:22:21;;;;;;;83.88;43.28;;;;;;;-5.25;94.29;102424.81;10493883;28;20448;-79
2023/02/07 20:27:23;;;;;;;86.90;44.47;;;;;;;-5.18;95.57;102427.94;10470917;28;20455;-79
2023/02/07 20:32:25;;;;;;;79.20;42.55;;;;;;;-5.47;95.12;102417.28;10456212;28;20087;-79
2023/02/07 20:37:27;;;;;;;78.68;40.97;;;;;;;-5.51;95.78;102418.72;10472596;28;20087;-80
2023/02/07 20:42:32;;;;;;;83.95;42.28;;;;;;;-5.29;94.67;102418.59;10468140;28;20051;-78
2023/02/07 20:47:33;;;;;;;83.00;46.70;;;;;;;-5.38;95.07;102417.94;10472125;28;20067;-78
2023/02/07 20:52:38;;;;;;;90.30;48.58;;;;;;;-5.54;94.70;102413.38;10469504;28;20041;-79
2023/02/07 20:57:41;;;;;;;89.00;46.55;;;;;;;-5.75;96.29;102417.00;10450600;28;20053;-79
2023/02/07 21:02:42;;;;;;;90.82;46.03;;;;;;;-5.77;97.32;102426.22;10451951;28;20044;-78
2023/02/07 21:07:44;;;;;;;87.82;46.67;;;;;;;-5.85;97.64;102429.09;10452184;28;20513;-77
2023/02/07 21:12:46;;;;;;;85.45;45.80;;;;;;;-5.54;96.67;102422.75;10451806;28;20068;-78
2023/02/07 21:17:48;;;;;;;85.70;44.88;;;;;;;-5.83;96.60;102429.25;10450156;28;20068;-78
2023/02/07 21:22:50;;;;;;;84.43;45.33;;;;;;;-5.72;96.59;102428.31;10473025;28;20048;-79
2023/02/07 21:27:52;;;;;;;91.97;47.70;;;;;;;-5.79;97.20;102430.38;10450061;28;20041;-78
2023/02/07 21:32:54;;;;;;;88.47;44.90;;;;;;;-5.79;97.00;102423.56;10453977;28;20037;-78
2023/02/07 21:37:56;;;;;;;91.85;44.58;;;;;;;-5.75;96.06;102417.88;10458877;28;20049;-78
2023/02/07 21:42:58;;;;;;;92.03;46.58;;;;;;;-5.86;97.32;102419.66;10457590;28;20157;-78
2023/02/07 21:48:00;;;;;;;90.53;45.22;;;;;;;-6.02;97.97;102423.56;10478528;28;20055;-79
2023/02/07 21:53:02;;;;;;;84.32;44.35;;;;;;;-6.25;98.12;102434.69;10458530;28;20040;-78
2023/02/07 21:58:04;;;;;;;91.30;47.88;;;;;;;-6.27;99.20;102434.59;10460843;28;20116;-77
2023/02/07 22:03:06;;;;;;;83.88;44.88;;;;;;;-6.03;99.07;102439.72;10459852;28;20147;-79
2023/02/07 22:08:10;;;;;;;85.93;45.47;;;;;;;-5.92;97.75;102441.41;10460043;28;20083;-78
2023/02/07 22:13:12;;;;;;;90.40;46.90;;;;;;;-6.20;97.18;102441.03;10463763;28;20057;-79
2023/02/07 22:18:15;;;;;;;93.53;45.67;;;;;;;-6.46;97.78;102451.88;10458394;28;20049;-78
2023/02/07 22:23:17;;;;;;;87.13;45.58;;;;;;;-6.24;98.43;102444.13;10474097;28;20487;-78
2023/02/07 22:28:19;;;;;;;91.68;45.35;;;;;;;-6.31;97.56;102447.91;10475460;28;20552;-78
2023/02/07 22:33:21;;;;;;;84.82;44.03;;;;;;;-6.19;96.18;102442.84;10469766;28;20052;-78
2023/02/07 22:38:23;;;;;;;83.15;43.25;;;;;;;-6.37;96.27;102440.69;10468891;28;20425;-77
2023/02/07 22:43:24;;;;;;;88.97;45.85;;;;;;;-6.18;97.01;102431.81;10468631;28;20454;-77
2023/02/07 22:48:26;;;;;;;90.50;45.60;;;;;;;-6.27;95.82;102428.56;10468505;28;20043;-77
2023/02/07 22:53:28;;;;;;;82.03;42.05;;;;;;;-6.50;97.15;102425.19;10470680;28;20117;-78
2023/02/07 22:58:30;;;;;;;78.32;43.05;;;;;;;-6.70;98.07;102426.22;10472761;28;20064;-78